Ship Status Report: callsign BATFR17

sailwx.info

Track history (hours):
 
Tides and Currents Weather Stations Pressure Air Temp Water Temp Dewpoint Dewpoint Depression Visibility Wind Speed Wind Dir Waves Ship Positions

Callsign BATFR17 (name unknown)

Last reported at 2019-Feb-18 21:00 UTC. Time now 2019-Feb-18 22:19 UTC.
Position N 39°36' E 004°18'.

Wind from 120 at 18 knots

Barometer 1022.4 mb
Water temperature 14.5 ° C

Date/timePositionNaut miles runAvg speedWind from/ knotsBaromVisibWave heightAir tempDewpointWater temp
2019-Feb-18 21:00N 39°36' E 004°18'1515.1 120 / 181022.4 14.5
2019-Feb-18 20:00N 39°30' E 004°00'1515.2 120 / 181021.9 14.5
2019-Feb-18 19:00N 39°18' E 003°48'1515.2 120 / 161021.7 14.4
2019-Feb-18 18:00N 39°12' E 003°30'1818.4 120 / 151021.2 15.2
2019-Feb-18 17:00N 39°00' E 003°12'1515.2 120 / 131020.6 14.9
2019-Feb-18 16:00N 38°54' E 002°54'1111.1 130 / 131020.5 14.9
2019-Feb-18 15:00N 38°48' E 002°42'1818.5 140 / 121020.6 15.0
2019-Feb-18 14:00N 38°36' E 002°24'1515.3 130 / 111021.1 15.5
2019-Feb-18 13:00N 38°30' E 002°06'1515.3 130 / 111021.6 15.5
2019-Feb-18 12:00N 38°24' E 001°48'1515.3 140 / 141021.8 15.4
2019-Feb-18 11:00N 38°12' E 001°36'1515.4 120 / 131021.9 15.2
2019-Feb-18 10:00N 38°06' E 001°18'1515.4 110 / 121022.0 15.2
2019-Feb-18 09:00N 38°00' E 001°00'1918.6 120 / 101021.8 15.2
2019-Feb-18 08:00N 37°48' E 000°42'1111.2 120 / 111021.4 15.4
2019-Feb-18 07:00N 37°42' E 000°30'1515.5 110 / 81021.0 15.0
2019-Feb-18 06:00N 37°36' E 000°12'1918.7 140 / 101020.9 15.4
2019-Feb-18 05:00N 37°24' W 000°06'1111.3 140 / 131020.7 15.7
2019-Feb-18 04:00N 37°18' W 000°18'1615.5 120 / 161020.8 15.5
2019-Feb-18 03:00N 37°12' W 000°36'1918.7 100 / 131021.0 15.2
2019-Feb-18 02:00N 37°00' W 000°54'1111.3 080 / 121021.1 15.4
2019-Feb-18 01:00N 36°54' W 001°06'1615.6 060 / 211021.3 15.5
2019-Feb-18 00:00N 36°48' W 001°24'1918.8 060 / 231021.5 15.7
2019-Feb-17 23:00N 36°36' W 001°42'1111.4 050 / 251021.9 15.7
2019-Feb-17 22:00N 36°30' W 001°54'1111.4 060 / 221022.0 15.5
2019-Feb-17 21:00N 36°24' W 002°06'1615.7 080 / 221021.8 15.4
2019-Feb-17 20:00N 36°18' W 002°24'1514.5 080 / 251021.7 15.7
2019-Feb-17 19:00N 36°18' W 002°42'1514.5 090 / 211021.2 15.5
2019-Feb-17 18:00N 36°18' W 003°00'1615.7 100 / 201020.5 15.4
2019-Feb-17 17:00N 36°12' W 003°18'1514.5 110 / 211020.7 15.5
2019-Feb-17 16:00N 36°12' W 003°36'1615.7 110 / 191021.6 15.7
2019-Feb-17 15:00N 36°06' W 003°54'1514.5 110 / 201021.7 15.9
2019-Feb-17 14:00N 36°06' W 004°12'1514.5 110 / 201022.6 16.0
2019-Feb-17 13:00N 36°06' W 004°30'1615.7 110 / 191023.2 16.0
2019-Feb-17 12:00N 36°00' W 004°48'1514.6 110 / 181023.9 16.0
2019-Feb-17 11:00N 36°00' W 005°06'1514.6 110 / 181024.2 15.7
2019-Feb-17 10:00N 36°00' W 005°24'1111.4 100 / 231023.9 16.4
2019-Feb-17 09:00N 35°54' W 005°36'1514.6 100 / 301022.9 16.4
2019-Feb-17 08:00N 35°54' W 005°54'10 9.7 110 / 331021.9 16.4
2019-Feb-17 07:00N 35°54' W 006°06'1514.6 110 / 341021.1 16.5
2019-Feb-17 06:00N 35°54' W 006°24'1615.8 120 / 301020.8 16.5
2019-Feb-17 05:00N 36°00' W 006°42'2512.5 130 / 291020.6 16.4
2019-Feb-17 03:00N 36°06' W 007°12'1615.7 130 / 221020.5 16.9
2019-Feb-17 02:00N 36°12' W 007°30'10 9.7 130 / 241020.5 16.7
2019-Feb-17 01:00N 36°12' W 007°42'1615.7 130 / 221020.9 16.7
2019-Feb-17 00:00N 36°18' W 008°00'1514.5 110 / 241020.6 17.0
2019-Feb-16 23:00N 36°18' W 008°18'1111.4 110 / 261021.0 17.0
2019-Feb-16 22:00N 36°24' W 008°30'1615.7 110 / 241021.3 16.9
2019-Feb-16 21:00N 36°30' W 008°48'1414.5 110 / 211021.9 17.0
2019-Feb-16 20:00N 36°30' W 009°06'1111.4 110 / 241021.0 16.9
2019-Feb-16 19:00N 36°36' W 009°18'1111.3 100 / 271021.3 16.4
2019-Feb-16 18:00N 36°42' W 009°30'1312.9 080 / 191020.5 16.2
2019-Feb-16 17:00N 36°54' W 009°36'1918.6 110 / 191020.5 16.4
2019-Feb-16 16:00N 37°12' W 009°42'1212.0 120 / 231020.8 16.2
2019-Feb-16 15:00N 37°24' W 009°42'1312.9 170 / 191020.6 16.5
2019-Feb-16 14:00N 37°36' W 009°48'1918.6 180 / 91021.7 16.4
2019-Feb-16 13:00N 37°54' W 009°54'1212.0 170 / 61022.5 15.9
2019-Feb-16 12:00N 38°06' W 009°54'1312.9 130 / 151022.9 15.9
2019-Feb-16 11:00N 38°18' W 010°00'1918.6 120 / 181023.0 15.5
2019-Feb-16 10:00N 38°36' W 010°06'1212.0 110 / 161023.1 15.7
2019-Feb-16 09:00N 38°48' W 010°06'1818.0 070 / 141023.1 15.7
2019-Feb-16 08:00N 39°06' W 010°06'1212.0 040 / 111023.0 15.0
2019-Feb-16 07:00N 39°18' W 010°06'1818.0 040 / 111023.0 14.7
2019-Feb-16 06:00N 39°36' W 010°06'1212.0 010 / 61023.4 14.7
2019-Feb-16 05:00N 39°48' W 010°06'1818.0 030 / 61023.5 15.0
2019-Feb-16 04:00N 40°06' W 010°06'1212.0 1023.7 15.0
2019-Feb-16 03:00N 40°18' W 010°06'1818.0 030 / 81024.1 14.4
2019-Feb-16 02:00N 40°36' W 010°06'1212.0 030 / 71024.7 14.5
2019-Feb-16 01:00N 40°48' W 010°06'1212.0 040 / 81024.9 14.4
2019-Feb-16 00:00N 41°00' W 010°06'1818.0 350 / 81025.4 14.4
2019-Feb-15 23:00N 41°18' W 010°06'1212.0 330 / 71025.5 14.5
2019-Feb-15 22:00N 41°30' W 010°06'1818.0 330 / 31025.7 14.5
2019-Feb-15 21:00N 41°48' W 010°06'1212.0 290 / 11025.6 14.7
2019-Feb-15 20:00N 42°00' W 010°06'1818.0 240 / 51025.7 14.7
2019-Feb-15 19:00N 42°18' W 010°06'1212.0 220 / 81025.3 13.9
2019-Feb-15 18:00N 42°30' W 010°06'1212.0 200 / 81024.7 5.4 14.0
2019-Feb-15 17:00N 42°42' W 010°06'1818.0 190 / 121024.2 14.0
2019-Feb-15 16:00N 43°00' W 010°06'1212.0 180 / 161024.1 13.9
2019-Feb-15 15:00N 43°12' W 010°06'1312.8 180 / 181023.9 13.4
2019-Feb-15 14:00N 43°24' W 010°00'1312.8 200 / 191024.2 13.4
2019-Feb-15 13:00N 43°36' W 009°54'1514.8 210 / 181024.9 13.4
2019-Feb-15 12:00N 43°48' W 009°42'1312.8 220 / 171025.3 13.4
2019-Feb-15 11:00N 44°00' W 009°36'1312.8 210 / 211024.7 13.2
2019-Feb-15 10:00N 44°12' W 009°30'1514.8 210 / 201024.3 13.2
2019-Feb-15 09:00N 44°24' W 009°18'7 7.4 210 / 221023.7 13.0
2019-Feb-15 08:00N 44°30' W 009°12'1514.7 190 / 191023.0 13.0
2019-Feb-15 07:00N 44°42' W 009°00'1312.7 170 / 181022.6 13.0
2019-Feb-15 06:00N 44°54' W 008°54'1514.7 160 / 191022.5 13.0
2019-Feb-15 05:00N 45°06' W 008°42'1312.7 160 / 171022.4 13.0
2019-Feb-15 04:00N 45°18' W 008°36'1514.7 160 / 181022.2 13.0
2019-Feb-15 03:00N 45°30' W 008°24'1312.7 160 / 201022.6 13.0
2019-Feb-15 02:00N 45°42' W 008°18'1514.6 160 / 181022.8 13.0
2019-Feb-15 01:00N 45°54' W 008°06'1312.7 160 / 181023.2 12.5
2019-Feb-15 00:00N 46°06' W 008°00'2019.8 160 / 181023.3 12.5
2019-Feb-14 23:00N 46°24' W 007°48'1514.6 150 / 181023.1 12.7
2019-Feb-14 22:00N 46°36' W 007°36'2713.5 150 / 171023.4 12.4
2019-Feb-14 20:00N 47°00' W 007°18'1514.5 150 / 171024.3 12.4
2019-Feb-14 19:00N 47°12' W 007°06'1312.7 150 / 171024.6 12.4
2019-Feb-14 18:00N 47°24' W 007°00'1414.5 150 / 191025.1 12.2
2019-Feb-14 17:00N 47°36' W 006°48'1414.5 150 / 191024.8 12.4
2019-Feb-14 16:00N 47°48' W 006°36'1312.7 150 / 201025.5 12.2
2019-Feb-14 15:00N 48°00' W 006°30'1414.4 150 / 211025.8 12.2
2019-Feb-14 14:00N 48°12' W 006°18'2019.7 150 / 211026.5 11.9
2019-Feb-14 13:00N 48°30' W 006°06'1312.6 160 / 211027.5 11.7
2019-Feb-14 12:00N 48°42' W 006°00'1414.4 150 / 201028.2 11.7
2019-Feb-14 11:00N 48°54' W 005°48'1313.3 150 / 191028.8 11.4
2019-Feb-14 10:00N 49°00' W 005°30'1313.2 150 / 151029.1 11.5
2019-Feb-14 09:00N 49°06' W 005°12'10 9.9 150 / 141029.6 11.4
2019-Feb-14 08:00N 49°12' W 005°00'1313.2 160 / 121029.9 11.4
2019-Feb-14 07:00N 49°18' W 004°42'1313.2 170 / 111029.7 11.4
2019-Feb-14 06:00N 49°24' W 004°24'1313.2 170 / 111029.9 11.2
2019-Feb-14 05:00N 49°30' W 004°06'2019.6 170 / 111030.3 10.9
2019-Feb-14 04:00N 49°42' W 003°42'1313.1 180 / 131030.6 10.9
2019-Feb-14 03:00N 49°48' W 003°24'1313.1 180 / 161031.1 10.9
2019-Feb-14 02:00N 49°54' W 003°06'1313.0 180 / 181031.3 10.9
2019-Feb-14 01:00N 50°00' W 002°48'1515.4 190 / 151031.9 10.5
2019-Feb-14 00:00N 50°00' W 002°24'1211.6 170 / 141032.1 10.4
2019-Feb-13 23:00N 50°00' W 002°06'1716.6 180 / 91032.6 10.5
2019-Feb-13 22:00N 49°54' W 001°42'1716.6 140 / 111032.8 10.5
2019-Feb-13 21:00N 49°48' W 001°18'3316.6 140 / 131032.8 9.4
2019-Feb-13 19:00N 49°36' W 000°30'1716.7 080 / 101033.8 9.4
2019-Feb-13 18:00N 49°30' W 000°06'1211.7 030 / 91033.6 7.9
2019-Feb-13 17:00N 49°30' E 000°12'4 0.2 110 / 71033.1 8.4
2019-Feb-12 18:00N 49°30' E 000°06'7 7.2 170 / 41036.5 8.0
2019-Feb-12 17:00N 49°36' E 000°00'1312.6 220 / 71035.7 7.9
2019-Feb-12 16:00N 49°48' E 000°06'10 9.8 250 / 91035.1 8.7
2019-Feb-12 15:00N 49°54' E 000°18'1414.3 250 / 121035.2 8.7
2019-Feb-12 14:00N 50°06' E 000°30'1716.6 250 / 151035.0 9.4
2019-Feb-12 13:00N 50°18' E 000°48'1312.6 250 / 161035.3 9.4
2019-Feb-12 12:00N 50°30' E 000°54'1212.0 240 / 191035.3 9.4
2019-Feb-12 11:00N 50°42' E 000°54'1716.5 260 / 191035.4 9.7
2019-Feb-12 10:00N 50°54' E 001°12'1312.8 280 / 231035.0 9.7
2019-Feb-12 09:00N 51°00' E 001°30'1616.5 270 / 131034.6 9.5
2019-Feb-12 08:00N 51°12' E 001°48'1312.6 260 / 201033.9 9.4
2019-Feb-12 07:00N 51°24' E 001°54'1414.1 260 / 191033.1 9.2
2019-Feb-12 06:00N 51°36' E 002°06'1312.7 260 / 191032.7 8.9
2019-Feb-12 05:00N 51°42' E 002°24'1414.1 260 / 191032.3 8.4
2019-Feb-12 04:00N 51°54' E 002°36'1312.6 250 / 181032.4 8.4
2019-Feb-12 03:00N 52°00' E 002°54'3416.9 260 / 151032.5 8.0
2019-Feb-12 01:00N 52°06' E 003°48'1312.6 310 / 91032.7 6.4
2019-Feb-12 00:00N 52°00' E 004°06'   330 / 101032.5 6.2
2019-Feb-09 12:00N 51°54' E 004°12'10 9.5 250 / 211001.8 6.4
2019-Feb-09 11:00N 52°00' E 004°00'7 7.4 240 / 171000.6 6.0
2019-Feb-09 10:00N 52°00' E 003°48'1212.0 240 / 34999.0 6.2
2019-Feb-09 09:00N 52°12' E 003°48'1212.0 240 / 37997.3 7.0
2019-Feb-09 08:00N 52°24' E 003°48'7 7.0 240 / 46996.1 7.2
2019-Feb-09 07:00N 52°30' E 003°54'6 6.0 240 / 45994.7 7.4
2019-Feb-09 06:00N 52°36' E 003°54'1212.0 240 / 41994.0 7.4
2019-Feb-09 05:00N 52°48' E 003°54'7 7.0 240 / 40993.1 7.5
2019-Feb-09 04:00N 52°54' E 004°00'1414.0 240 / 40992.8 7.7
2019-Feb-09 03:00N 53°06' E 004°12'9 9.4 240 / 37992.6 7.5
2019-Feb-09 02:00N 53°12' E 004°24'2110.5 230 / 36992.0 7.4
2019-Feb-09 00:00N 53°30' E 004°42'9 9.3 230 / 37991.8 7.5
2019-Feb-08 23:00N 53°36' E 004°54'1110.7 220 / 40991.9 7.4
2019-Feb-08 22:00N 53°36' E 005°12'   220 / 45992.5 6.7
Track history (hours):
 
Tides and Currents Weather Stations Pressure Air Temp Water Temp Dewpoint Dewpoint Depression Visibility Wind Speed Wind Dir Waves Ship Positions

Callsign BATFR17 (name unknown)

Last reported at 2019-Feb-18 21:00 UTC. Time now 2019-Feb-18 22:19 UTC.
Position N 39°36' E 004°18'.

Wind from 120 at 18 knots

Barometer 1022.4 mb
Water temperature 14.5 ° C

Date/timePositionNaut miles runAvg speedWind from/ knotsBaromVisibWave heightAir tempDewpointWater temp
2019-Feb-18 21:00N 39°36' E 004°18'1515.1 120 / 181022.4 14.5
2019-Feb-18 20:00N 39°30' E 004°00'1515.2 120 / 181021.9 14.5
2019-Feb-18 19:00N 39°18' E 003°48'1515.2 120 / 161021.7 14.4
2019-Feb-18 18:00N 39°12' E 003°30'1818.4 120 / 151021.2 15.2
2019-Feb-18 17:00N 39°00' E 003°12'1515.2 120 / 131020.6 14.9
2019-Feb-18 16:00N 38°54' E 002°54'1111.1 130 / 131020.5 14.9
2019-Feb-18 15:00N 38°48' E 002°42'1818.5 140 / 121020.6 15.0
2019-Feb-18 14:00N 38°36' E 002°24'1515.3 130 / 111021.1 15.5
2019-Feb-18 13:00N 38°30' E 002°06'1515.3 130 / 111021.6 15.5
2019-Feb-18 12:00N 38°24' E 001°48'1515.3 140 / 141021.8 15.4
2019-Feb-18 11:00N 38°12' E 001°36'1515.4 120 / 131021.9 15.2
2019-Feb-18 10:00N 38°06' E 001°18'1515.4 110 / 121022.0 15.2
2019-Feb-18 09:00N 38°00' E 001°00'1918.6 120 / 101021.8 15.2
2019-Feb-18 08:00N 37°48' E 000°42'1111.2 120 / 111021.4 15.4
2019-Feb-18 07:00N 37°42' E 000°30'1515.5 110 / 81021.0 15.0
2019-Feb-18 06:00N 37°36' E 000°12'1918.7 140 / 101020.9 15.4
2019-Feb-18 05:00N 37°24' W 000°06'1111.3 140 / 131020.7 15.7
2019-Feb-18 04:00N 37°18' W 000°18'1615.5 120 / 161020.8 15.5
2019-Feb-18 03:00N 37°12' W 000°36'1918.7 100 / 131021.0 15.2
2019-Feb-18 02:00N 37°00' W 000°54'1111.3 080 / 121021.1 15.4
2019-Feb-18 01:00N 36°54' W 001°06'1615.6 060 / 211021.3 15.5
2019-Feb-18 00:00N 36°48' W 001°24'1918.8 060 / 231021.5 15.7
2019-Feb-17 23:00N 36°36' W 001°42'1111.4 050 / 251021.9 15.7
2019-Feb-17 22:00N 36°30' W 001°54'1111.4 060 / 221022.0 15.5
2019-Feb-17 21:00N 36°24' W 002°06'1615.7 080 / 221021.8 15.4
2019-Feb-17 20:00N 36°18' W 002°24'1514.5 080 / 251021.7 15.7
2019-Feb-17 19:00N 36°18' W 002°42'1514.5 090 / 211021.2 15.5
2019-Feb-17 18:00N 36°18' W 003°00'1615.7 100 / 201020.5 15.4
2019-Feb-17 17:00N 36°12' W 003°18'1514.5 110 / 211020.7 15.5
2019-Feb-17 16:00N 36°12' W 003°36'1615.7 110 / 191021.6 15.7
2019-Feb-17 15:00N 36°06' W 003°54'1514.5 110 / 201021.7 15.9
2019-Feb-17 14:00N 36°06' W 004°12'1514.5 110 / 201022.6 16.0
2019-Feb-17 13:00N 36°06' W 004°30'1615.7 110 / 191023.2 16.0
2019-Feb-17 12:00N 36°00' W 004°48'1514.6 110 / 181023.9 16.0
2019-Feb-17 11:00N 36°00' W 005°06'1514.6 110 / 181024.2 15.7
2019-Feb-17 10:00N 36°00' W 005°24'1111.4 100 / 231023.9 16.4
2019-Feb-17 09:00N 35°54' W 005°36'1514.6 100 / 301022.9 16.4
2019-Feb-17 08:00N 35°54' W 005°54'10 9.7 110 / 331021.9 16.4
2019-Feb-17 07:00N 35°54' W 006°06'1514.6 110 / 341021.1 16.5
2019-Feb-17 06:00N 35°54' W 006°24'1615.8 120 / 301020.8 16.5
2019-Feb-17 05:00N 36°00' W 006°42'2512.5 130 / 291020.6 16.4
2019-Feb-17 03:00N 36°06' W 007°12'1615.7 130 / 221020.5 16.9
2019-Feb-17 02:00N 36°12' W 007°30'10 9.7 130 / 241020.5 16.7
2019-Feb-17 01:00N 36°12' W 007°42'1615.7 130 / 221020.9 16.7
2019-Feb-17 00:00N 36°18' W 008°00'1514.5 110 / 241020.6 17.0
2019-Feb-16 23:00N 36°18' W 008°18'1111.4 110 / 261021.0 17.0
2019-Feb-16 22:00N 36°24' W 008°30'1615.7 110 / 241021.3 16.9
2019-Feb-16 21:00N 36°30' W 008°48'1414.5 110 / 211021.9 17.0
2019-Feb-16 20:00N 36°30' W 009°06'1111.4 110 / 241021.0 16.9
2019-Feb-16 19:00N 36°36' W 009°18'1111.3 100 / 271021.3 16.4
2019-Feb-16 18:00N 36°42' W 009°30'1312.9 080 / 191020.5 16.2
2019-Feb-16 17:00N 36°54' W 009°36'1918.6 110 / 191020.5 16.4
2019-Feb-16 16:00N 37°12' W 009°42'1212.0 120 / 231020.8 16.2
2019-Feb-16 15:00N 37°24' W 009°42'1312.9 170 / 191020.6 16.5
2019-Feb-16 14:00N 37°36' W 009°48'1918.6 180 / 91021.7 16.4
2019-Feb-16 13:00N 37°54' W 009°54'1212.0 170 / 61022.5 15.9
2019-Feb-16 12:00N 38°06' W 009°54'1312.9 130 / 151022.9 15.9
2019-Feb-16 11:00N 38°18' W 010°00'1918.6 120 / 181023.0 15.5
2019-Feb-16 10:00N 38°36' W 010°06'1212.0 110 / 161023.1 15.7
2019-Feb-16 09:00N 38°48' W 010°06'1818.0 070 / 141023.1 15.7
2019-Feb-16 08:00N 39°06' W 010°06'1212.0 040 / 111023.0 15.0
2019-Feb-16 07:00N 39°18' W 010°06'1818.0 040 / 111023.0 14.7
2019-Feb-16 06:00N 39°36' W 010°06'1212.0 010 / 61023.4 14.7
2019-Feb-16 05:00N 39°48' W 010°06'1818.0 030 / 61023.5 15.0
2019-Feb-16 04:00N 40°06' W 010°06'1212.0 1023.7 15.0
2019-Feb-16 03:00N 40°18' W 010°06'1818.0 030 / 81024.1 14.4
2019-Feb-16 02:00N 40°36' W 010°06'1212.0 030 / 71024.7 14.5
2019-Feb-16 01:00N 40°48' W 010°06'1212.0 040 / 81024.9 14.4
2019-Feb-16 00:00N 41°00' W 010°06'1818.0 350 / 81025.4 14.4
2019-Feb-15 23:00N 41°18' W 010°06'1212.0 330 / 71025.5 14.5
2019-Feb-15 22:00N 41°30' W 010°06'1818.0 330 / 31025.7 14.5
2019-Feb-15 21:00N 41°48' W 010°06'1212.0 290 / 11025.6 14.7
2019-Feb-15 20:00N 42°00' W 010°06'1818.0 240 / 51025.7 14.7
2019-Feb-15 19:00N 42°18' W 010°06'1212.0 220 / 81025.3 13.9
2019-Feb-15 18:00N 42°30' W 010°06'1212.0 200 / 81024.7 5.4 14.0
2019-Feb-15 17:00N 42°42' W 010°06'1818.0 190 / 121024.2 14.0
2019-Feb-15 16:00N 43°00' W 010°06'1212.0 180 / 161024.1 13.9
2019-Feb-15 15:00N 43°12' W 010°06'1312.8 180 / 181023.9 13.4
2019-Feb-15 14:00N 43°24' W 010°00'1312.8 200 / 191024.2 13.4
2019-Feb-15 13:00N 43°36' W 009°54'1514.8 210 / 181024.9 13.4
2019-Feb-15 12:00N 43°48' W 009°42'1312.8 220 / 171025.3 13.4
2019-Feb-15 11:00N 44°00' W 009°36'1312.8 210 / 211024.7 13.2
2019-Feb-15 10:00N 44°12' W 009°30'1514.8 210 / 201024.3 13.2
2019-Feb-15 09:00N 44°24' W 009°18'7 7.4 210 / 221023.7 13.0
2019-Feb-15 08:00N 44°30' W 009°12'1514.7 190 / 191023.0 13.0
2019-Feb-15 07:00N 44°42' W 009°00'1312.7 170 / 181022.6 13.0
2019-Feb-15 06:00N 44°54' W 008°54'1514.7 160 / 191022.5 13.0
2019-Feb-15 05:00N 45°06' W 008°42'1312.7 160 / 171022.4 13.0
2019-Feb-15 04:00N 45°18' W 008°36'1514.7 160 / 181022.2 13.0
2019-Feb-15 03:00N 45°30' W 008°24'1312.7 160 / 201022.6 13.0
2019-Feb-15 02:00N 45°42' W 008°18'1514.6 160 / 181022.8 13.0
2019-Feb-15 01:00N 45°54' W 008°06'1312.7 160 / 181023.2 12.5
2019-Feb-15 00:00N 46°06' W 008°00'2019.8 160 / 181023.3 12.5
2019-Feb-14 23:00N 46°24' W 007°48'1514.6 150 / 181023.1 12.7
2019-Feb-14 22:00N 46°36' W 007°36'2713.5 150 / 171023.4 12.4
2019-Feb-14 20:00N 47°00' W 007°18'1514.5 150 / 171024.3 12.4
2019-Feb-14 19:00N 47°12' W 007°06'1312.7 150 / 171024.6 12.4
2019-Feb-14 18:00N 47°24' W 007°00'1414.5 150 / 191025.1 12.2
2019-Feb-14 17:00N 47°36' W 006°48'1414.5 150 / 191024.8 12.4
2019-Feb-14 16:00N 47°48' W 006°36'1312.7 150 / 201025.5 12.2
2019-Feb-14 15:00N 48°00' W 006°30'1414.4 150 / 211025.8 12.2
2019-Feb-14 14:00N 48°12' W 006°18'2019.7 150 / 211026.5 11.9
2019-Feb-14 13:00N 48°30' W 006°06'1312.6 160 / 211027.5 11.7
2019-Feb-14 12:00N 48°42' W 006°00'1414.4 150 / 201028.2 11.7
2019-Feb-14 11:00N 48°54' W 005°48'1313.3 150 / 191028.8 11.4
2019-Feb-14 10:00N 49°00' W 005°30'1313.2 150 / 151029.1 11.5
2019-Feb-14 09:00N 49°06' W 005°12'10 9.9 150 / 141029.6 11.4
2019-Feb-14 08:00N 49°12' W 005°00'1313.2 160 / 121029.9 11.4
2019-Feb-14 07:00N 49°18' W 004°42'1313.2 170 / 111029.7 11.4
2019-Feb-14 06:00N 49°24' W 004°24'1313.2 170 / 111029.9 11.2
2019-Feb-14 05:00N 49°30' W 004°06'2019.6 170 / 111030.3 10.9
2019-Feb-14 04:00N 49°42' W 003°42'1313.1 180 / 131030.6 10.9
2019-Feb-14 03:00N 49°48' W 003°24'1313.1 180 / 161031.1 10.9
2019-Feb-14 02:00N 49°54' W 003°06'1313.0 180 / 181031.3 10.9
2019-Feb-14 01:00N 50°00' W 002°48'1515.4 190 / 151031.9 10.5
2019-Feb-14 00:00N 50°00' W 002°24'1211.6 170 / 141032.1 10.4
2019-Feb-13 23:00N 50°00' W 002°06'1716.6 180 / 91032.6 10.5
2019-Feb-13 22:00N 49°54' W 001°42'1716.6 140 / 111032.8 10.5
2019-Feb-13 21:00N 49°48' W 001°18'3316.6 140 / 131032.8 9.4
2019-Feb-13 19:00N 49°36' W 000°30'1716.7 080 / 101033.8 9.4
2019-Feb-13 18:00N 49°30' W 000°06'1211.7 030 / 91033.6 7.9
2019-Feb-13 17:00N 49°30' E 000°12'4 0.2 110 / 71033.1 8.4
2019-Feb-12 18:00N 49°30' E 000°06'7 7.2 170 / 41036.5 8.0
2019-Feb-12 17:00N 49°36' E 000°00'1312.6 220 / 71035.7 7.9
2019-Feb-12 16:00N 49°48' E 000°06'10 9.8 250 / 91035.1 8.7
2019-Feb-12 15:00N 49°54' E 000°18'1414.3 250 / 121035.2 8.7
2019-Feb-12 14:00N 50°06' E 000°30'1716.6 250 / 151035.0 9.4
2019-Feb-12 13:00N 50°18' E 000°48'1312.6 250 / 161035.3 9.4
2019-Feb-12 12:00N 50°30' E 000°54'1212.0 240 / 191035.3 9.4
2019-Feb-12 11:00N 50°42' E 000°54'1716.5 260 / 191035.4 9.7
2019-Feb-12 10:00N 50°54' E 001°12'1312.8 280 / 231035.0 9.7
2019-Feb-12 09:00N 51°00' E 001°30'1616.5 270 / 131034.6 9.5
2019-Feb-12 08:00N 51°12' E 001°48'1312.6 260 / 201033.9 9.4
2019-Feb-12 07:00N 51°24' E 001°54'1414.1 260 / 191033.1 9.2
2019-Feb-12 06:00N 51°36' E 002°06'1312.7 260 / 191032.7 8.9
2019-Feb-12 05:00N 51°42' E 002°24'1414.1 260 / 191032.3 8.4
2019-Feb-12 04:00N 51°54' E 002°36'1312.6 250 / 181032.4 8.4
2019-Feb-12 03:00N 52°00' E 002°54'3416.9 260 / 151032.5 8.0
2019-Feb-12 01:00N 52°06' E 003°48'1312.6 310 / 91032.7 6.4
2019-Feb-12 00:00N 52°00' E 004°06'   330 / 101032.5 6.2
2019-Feb-09 12:00N 51°54' E 004°12'10 9.5 250 / 211001.8 6.4
2019-Feb-09 11:00N 52°00' E 004°00'7 7.4 240 / 171000.6 6.0
2019-Feb-09 10:00N 52°00' E 003°48'1212.0 240 / 34999.0 6.2
2019-Feb-09 09:00N 52°12' E 003°48'1212.0 240 / 37997.3 7.0
2019-Feb-09 08:00N 52°24' E 003°48'7 7.0 240 / 46996.1 7.2
2019-Feb-09 07:00N 52°30' E 003°54'6 6.0 240 / 45994.7 7.4
2019-Feb-09 06:00N 52°36' E 003°54'1212.0 240 / 41994.0 7.4
2019-Feb-09 05:00N 52°48' E 003°54'7 7.0 240 / 40993.1 7.5
2019-Feb-09 04:00N 52°54' E 004°00'1414.0 240 / 40992.8 7.7
2019-Feb-09 03:00N 53°06' E 004°12'9 9.4 240 / 37992.6 7.5
2019-Feb-09 02:00N 53°12' E 004°24'2110.5 230 / 36992.0 7.4
2019-Feb-09 00:00N 53°30' E 004°42'9 9.3 230 / 37991.8 7.5
2019-Feb-08 23:00N 53°36' E 004°54'1110.7 220 / 40991.9 7.4
2019-Feb-08 22:00N 53°36' E 005°12'   220 / 45992.5 6.7

Dump ship's entire track history